createdAt,value
2023-01-10T00:04:28.955Z,17.21
2023-01-10T00:14:36.045Z,17.23
2023-01-10T00:24:43.456Z,17.19
2023-01-10T00:34:50.148Z,17.19
2023-01-10T00:44:57.578Z,17.25
2023-01-10T00:55:04.632Z,17.20
2023-01-10T01:05:11.376Z,17.20
2023-01-10T01:15:18.629Z,17.23
2023-01-10T01:25:25.602Z,17.23
2023-01-10T01:35:32.967Z,17.21
2023-01-10T01:45:39.459Z,17.23
2023-01-10T01:55:46.984Z,17.20
2023-01-10T02:05:53.897Z,17.23
2023-01-10T03:32:29.804Z,18.68
2023-01-10T03:42:28.921Z,18.70
2023-01-10T03:52:35.330Z,17.48
2023-01-10T04:02:42.121Z,17.48
2023-01-10T04:12:49.419Z,17.35
2023-01-10T04:22:56.296Z,17.35
2023-01-10T04:33:03.199Z,17.31
2023-01-10T04:43:10.715Z,17.28
2023-01-10T04:53:17.319Z,17.28
2023-01-10T05:03:24.374Z,17.28
2023-01-10T05:13:31.437Z,17.25
2023-01-10T05:23:38.693Z,17.27
2023-01-10T05:33:45.316Z,17.27
2023-01-10T05:43:52.524Z,17.23
2023-01-10T05:53:59.817Z,17.23
2023-01-10T06:04:07.039Z,17.23
2023-01-10T06:14:14.102Z,17.23
2023-01-10T06:24:21.197Z,17.21
2023-01-10T06:34:28.229Z,17.21
2023-01-10T06:44:35.255Z,17.19
2023-01-10T06:54:42.144Z,17.13
2023-01-10T07:04:48.900Z,17.13
2023-01-10T07:14:56.216Z,17.16
2023-01-10T07:25:04.053Z,17.16
2023-01-10T07:35:11.333Z,17.18
2023-01-10T07:45:18.012Z,17.18
2023-01-10T07:55:25.460Z,17.19
2023-01-10T08:05:32.679Z,17.16
2023-01-10T08:15:39.308Z,17.16
2023-01-10T08:25:46.442Z,17.14
2023-01-10T08:35:53.231Z,17.12
2023-01-10T08:46:00.392Z,17.11
2023-01-10T08:56:07.855Z,17.25
2023-01-10T09:06:15.751Z,17.25
2023-01-10T09:16:22.695Z,17.19
2023-01-10T09:26:29.814Z,17.19
2023-01-10T09:36:36.800Z,17.18
2023-01-10T09:46:43.848Z,17.16
2023-01-10T09:56:50.960Z,17.13
2023-01-10T10:06:58.028Z,17.16
2023-01-10T10:17:04.924Z,17.16
2023-01-10T10:27:11.997Z,17.11
2023-01-10T10:37:19.055Z,17.13
2023-01-10T10:47:25.661Z,17.13
2023-01-10T10:57:32.781Z,17.14
2023-01-10T11:07:40.121Z,16.91
2023-01-10T11:17:47.354Z,16.91
2023-01-10T11:27:55.537Z,16.92
2023-01-10T11:38:03.189Z,17.04
2023-01-10T11:48:10.283Z,17.04
2023-01-10T11:58:17.651Z,17.09
2023-01-10T12:08:25.447Z,17.13
2023-01-10T12:18:32.685Z,17.13
2023-01-10T12:28:40.095Z,17.25
2023-01-10T12:38:47.349Z,17.36
2023-01-10T12:48:54.719Z,17.45
2023-01-10T12:59:01.420Z,17.45
2023-01-10T13:09:08.602Z,17.47
2023-01-10T13:19:15.507Z,17.50
2023-01-10T13:29:22.353Z,17.52
2023-01-10T13:39:29.767Z,17.52
2023-01-10T13:49:36.786Z,17.52
2023-01-10T13:59:44.020Z,17.48
2023-01-10T14:09:50.637Z,17.41
2023-01-10T14:19:57.655Z,17.38
2023-01-10T14:30:04.076Z,17.33
2023-01-10T14:40:11.045Z,17.34
2023-01-10T14:50:17.751Z,17.34
2023-01-10T15:00:25.388Z,17.33
2023-01-10T15:10:32.162Z,17.33
2023-01-10T15:20:39.502Z,17.40
2023-01-10T15:30:47.384Z,17.36
2023-01-10T15:40:54.539Z,17.35
2023-01-10T15:51:01.454Z,17.31
2023-01-10T16:01:08.605Z,17.31
2023-01-10T16:11:15.490Z,17.34
2023-01-10T16:21:22.487Z,17.34
2023-01-10T16:31:29.588Z,17.30
2023-01-10T16:41:36.541Z,17.34
2023-01-10T16:51:42.876Z,17.26
2023-01-10T17:01:50.008Z,17.26
2023-01-10T17:11:56.858Z,17.28
2023-01-10T17:22:03.820Z,17.28
2023-01-10T17:32:11.125Z,17.23
2023-01-10T17:42:18.954Z,17.27
2023-01-10T17:52:25.893Z,17.27
2023-01-10T18:02:33.309Z,17.23
2023-01-10T18:12:40.867Z,17.23
2023-01-10T18:22:47.916Z,17.23
2023-01-10T18:32:55.118Z,17.18
2023-01-10T18:43:01.916Z,17.16
2023-01-10T18:53:08.204Z,17.16
2023-01-10T19:03:15.077Z,17.12
2023-01-10T19:13:22.603Z,17.12
2023-01-10T19:23:29.322Z,17.12
2023-01-10T19:33:36.431Z,17.13
2023-01-10T19:43:43.638Z,17.13
2023-01-10T19:53:50.576Z,17.09
2023-01-10T20:03:57.669Z,17.11
2023-01-10T20:14:04.667Z,17.11
2023-01-10T20:24:11.996Z,17.11
2023-01-10T20:34:19.395Z,17.13
2023-01-10T20:44:26.445Z,17.13
2023-01-10T20:54:33.748Z,17.09
2023-01-10T21:04:40.784Z,17.09
2023-01-10T21:14:47.798Z,17.11
2023-01-10T21:24:54.848Z,17.11
2023-01-10T21:35:01.764Z,17.11
2023-01-10T21:45:08.655Z,17.12
2023-01-10T21:55:16.283Z,17.09
2023-01-10T22:05:24.218Z,17.12
2023-01-10T22:15:31.144Z,17.12
2023-01-10T22:25:38.153Z,17.12
2023-01-10T22:35:44.993Z,17.12
2023-01-10T22:45:52.195Z,17.12
2023-01-10T22:55:58.994Z,17.11
2023-01-10T23:06:06.301Z,17.11
2023-01-10T23:16:13.299Z,17.09
2023-01-10T23:26:20.629Z,17.11
2023-01-10T23:36:28.097Z,17.11
2023-01-10T23:46:35.513Z,17.13
2023-01-10T23:56:42.443Z,17.09
